Kimball, NE

11:22 AM MDT on August 20, 2017 (GMT -0600)
Kimball Municipal-Arraj

Weather History for KIBM - May, 2013

Change the Weather History Date:

Thursday, May 23, 2013

  Actual Average (KSNY) Record (KSNY)
Temperature  
Mean Temperature 54 °F -  
Max Temperature 63 °F 69 °F 89 °F (1950)
Min Temperature 44 °F 41 °F 32 °F (1974)
Degree Days  
Heating Degree Days 12    
Growing Degree Days 4 (Base 50)    
Moisture  
Dew Point 46 °F    
Average Humidity 80    
Maximum Humidity 97    
Minimum Humidity 56    
Precipitation  
Precipitation 0.00 in - - ()
Sea Level Pressure  
Sea Level Pressure 30.11 in    
Wind  
Wind Speed 15 mph (SE)    
Max Wind Speed 26 mph    
Max Gust Speed 33 mph    
Visibility 8 miles    
Events Fog , Rain    
Averages and records for this station are not official NWS values.
T = Trace of Precipitation, MM = Missing Value Source: NWS Daily Summary

Daily Weather History Graph

Daily Weather History Graph

Search for Another Location

Airport or City:

Trip Planner

Search our weather history database for the weather conditions in past years. The results will help you decide how hot, cold, wet, or windy it might be!

Date:

Astronomy

May. 23, 2013 Rise Set
Actual Time 6:29 AM CDT 9:14 PM CDT
Civil Twilight 5:57 AM CDT 9:46 PM CDT
Nautical Twilight 5:16 AM CDT 10:26 PM CDT
Astronomical Twilight 4:30 AM CDT 11:13 PM CDT
Moon 7:48 PM CDT (5/23) 5:16 AM CDT (5/23)
Length of Visible Light 15h 49m
Length of Day
14h 44m
Waxing Gibbous, 97% of the Moon is Illuminated
May 23
Waxing Gibbous
May 24
Full
May 31
Last Quarter
Jun 8
New
Jun 16
First Quarter

Hourly Weather History & Observations

Time (CDT) Temp. Windchill Dew Point Humidity Pressure Visibility Wind Dir Wind Speed Gust Speed Precip Events Conditions
12:15 AM 47.3 °F - 43.5 °F 87% 30.11 in 10.0 mi East 9.2 mph - N/A Rain Rain
12:35 AM 47.3 °F - 44.1 °F 88% 30.12 in 10.0 mi East 9.2 mph - N/A Rain Light Rain
12:55 AM 47.1 °F - 44.4 °F 90% 30.13 in 10.0 mi ESE 6.9 mph - N/A Rain Rain
1:15 AM 46.9 °F - 44.2 °F 90% 30.13 in 10.0 mi ESE 6.9 mph - N/A   Overcast
1:35 AM 47.3 °F - 44.6 °F 90% 30.12 in 10.0 mi East 9.2 mph - N/A   Overcast
1:55 AM 47.1 °F - 44.6 °F 91% 30.12 in 10.0 mi East 11.5 mph - N/A   Overcast
2:15 AM 46.8 °F - 44.6 °F 92% 30.11 in 10.0 mi East 15.0 mph - N/A   Overcast
2:35 AM 46.4 °F 41.5 °F 44.4 °F 93% 30.12 in 10.0 mi East 10.4 mph 18.4 mph N/A   Overcast
2:55 AM 46.0 °F 41.4 °F 44.2 °F 93% 30.14 in 10.0 mi East 9.2 mph - N/A   Overcast
3:15 AM 45.5 °F 39.9 °F 43.9 °F 94% 30.13 in 10.0 mi East 11.5 mph - N/A   Overcast
3:35 AM 45.5 °F 39.2 °F 43.7 °F 93% 30.13 in 10.0 mi East 13.8 mph - N/A   Overcast
3:55 AM 45.5 °F 39.9 °F 43.7 °F 93% 30.13 in 10.0 mi ESE 11.5 mph - N/A   Overcast
4:15 AM 45.3 °F 39.7 °F 43.7 °F 94% 30.13 in 10.0 mi ESE 11.5 mph - N/A   Overcast
4:35 AM 45.5 °F 40.8 °F 43.9 °F 94% 30.14 in 1.5 mi ESE 9.2 mph - N/A   Overcast
4:55 AM 45.5 °F 40.3 °F 44.1 °F 95% 30.15 in 1.5 mi ESE 10.4 mph - N/A   Overcast
5:15 AM 45.3 °F 40.1 °F 43.9 °F 95% 30.13 in 0.2 mi ESE 10.4 mph - N/A Fog Fog
5:35 AM 45.1 °F 39.5 °F 43.9 °F 95% 30.14 in 0.5 mi ESE 11.5 mph - N/A Fog Fog
5:55 AM 44.8 °F 38.3 °F 43.7 °F 96% 30.15 in 0.8 mi ESE 13.8 mph - N/A   Overcast
6:15 AM 44.6 °F 38.4 °F 43.7 °F 97% 30.14 in 0.5 mi ESE 12.7 mph - N/A Rain Light Rain
6:35 AM 44.6 °F 38.4 °F 43.3 °F 95% 30.15 in 0.2 mi SE 12.7 mph - N/A Rain Light Rain
6:55 AM 44.2 °F 38.0 °F 43.2 °F 96% 30.15 in 0.2 mi ESE 12.7 mph - N/A   Drizzle
7:15 AM 44.6 °F 38.1 °F 43.5 °F 96% 30.15 in 0.2 mi SE 13.8 mph - N/A   Drizzle
7:35 AM 44.6 °F 37.8 °F 43.7 °F 97% 30.15 in 0.2 mi SE 15.0 mph - N/A   Drizzle
7:55 AM 44.8 °F 38.0 °F 43.7 °F 96% 30.15 in 0.2 mi ESE 15.0 mph - N/A   Drizzle
8:15 AM 45.1 °F 38.4 °F 44.1 °F 96% 30.15 in 0.2 mi ESE 15.0 mph - N/A Rain Rain
8:35 AM 45.5 °F 38.9 °F 44.6 °F 97% 30.15 in 0.2 mi SE 15.0 mph - N/A   Drizzle
8:55 AM 45.5 °F 38.9 °F 44.6 °F 97% 30.15 in 0.2 mi SE 15.0 mph - N/A Rain Rain
9:15 AM 45.9 °F 39.4 °F 44.8 °F 96% 30.16 in 1.0 mi SE 15.0 mph - N/A   Overcast
9:35 AM 46.0 °F 39.6 °F 45.0 °F 96% 30.16 in 0.5 mi SSE 15.0 mph - N/A Fog Fog
9:55 AM 46.4 °F 40.4 °F 45.1 °F 95% 30.16 in 0.2 mi SE 13.8 mph - N/A Fog Fog
10:15 AM 47.1 °F - 46.2 °F 97% 30.16 in 1.5 mi SE 17.3 mph - N/A   Overcast
10:35 AM 47.8 °F - 46.8 °F 96% 30.15 in 5.0 mi ESE 16.1 mph - N/A   Overcast
10:55 AM 48.6 °F - 47.3 °F 95% 30.15 in 10.0 mi SE 15.0 mph - N/A   Overcast
11:15 AM 49.6 °F - 46.2 °F 88% 30.15 in 10.0 mi SE 16.1 mph - N/A   Overcast
11:35 AM 51.1 °F - 46.0 °F 83% 30.15 in 10.0 mi SE 16.1 mph 19.6 mph N/A   Overcast
11:55 AM 52.5 °F - 45.5 °F 77% 30.14 in 10.0 mi SSE 19.6 mph 23.0 mph N/A   Overcast
12:15 PM 53.6 °F - 45.3 °F 74% 30.14 in 10.0 mi SSE 18.4 mph 23.0 mph N/A   Overcast
12:35 PM 55.2 °F - 45.7 °F 70% 30.14 in 10.0 mi SSE 18.4 mph 24.2 mph N/A   Overcast
12:55 PM 56.7 °F - 46.0 °F 68% 30.13 in 10.0 mi SSE 19.6 mph 24.2 mph N/A   Overcast
1:15 PM 57.9 °F - 46.2 °F 65% 30.13 in 10.0 mi SE 21.9 mph 26.5 mph N/A   Overcast
1:35 PM 59.0 °F - 46.4 °F 63% 30.11 in 10.0 mi SE 21.9 mph 27.6 mph N/A   Overcast
1:55 PM 60.1 °F - 46.4 °F 61% 30.11 in 10.0 mi SSE 21.9 mph 31.1 mph N/A   Overcast
2:15 PM 59.9 °F - 46.6 °F 61% 30.10 in 10.0 mi SE 23.0 mph 32.2 mph N/A   Mostly Cloudy
2:35 PM 58.8 °F - 46.9 °F 65% 30.10 in 10.0 mi SE 20.7 mph 26.5 mph N/A   Mostly Cloudy
2:55 PM 61.0 °F - 47.7 °F 62% 30.10 in 10.0 mi SE 21.9 mph 25.3 mph N/A   Overcast
3:15 PM 63.3 °F - 47.5 °F 56% 30.09 in 10.0 mi SE 24.2 mph 33.4 mph N/A   Mostly Cloudy
3:35 PM 63.5 °F - 47.7 °F 56% 30.10 in 10.0 mi SSE 24.2 mph 28.8 mph N/A   Overcast
3:55 PM 61.0 °F - 47.7 °F 62% 30.08 in 10.0 mi SE 26.5 mph 32.2 mph N/A   Overcast
4:15 PM 61.3 °F - 48.4 °F 62% 30.09 in 10.0 mi SSE 24.2 mph 32.2 mph N/A   Overcast
4:35 PM 60.8 °F - 48.9 °F 65% 30.08 in 10.0 mi SE 26.5 mph 31.1 mph N/A   Overcast
4:55 PM 59.4 °F - 48.0 °F 66% 30.08 in 10.0 mi SE 25.3 mph 31.1 mph N/A   Overcast
5:15 PM 58.8 °F - 48.2 °F 68% 30.08 in 10.0 mi SE 26.5 mph 33.4 mph N/A   Overcast
5:35 PM 59.2 °F - 48.4 °F 67% 30.07 in 10.0 mi SE 25.3 mph 31.1 mph N/A   Overcast
5:55 PM 58.1 °F - 48.2 °F 70% 30.08 in 10.0 mi SSE 26.5 mph 32.2 mph N/A   Overcast
6:15 PM 58.3 °F - 48.4 °F 70% 30.08 in 10.0 mi SSE 23.0 mph 28.8 mph N/A   Overcast
6:35 PM 58.6 °F - 48.6 °F 69% 30.07 in 10.0 mi SSE 25.3 mph 32.2 mph N/A   Overcast
6:55 PM 58.5 °F - 48.6 °F 70% 30.07 in 10.0 mi SSE 25.3 mph - N/A   Overcast
7:15 PM 58.6 °F - 48.7 °F 70% 30.07 in 10.0 mi SSE 20.7 mph 27.6 mph N/A   Overcast
7:35 PM 59.0 °F - 48.9 °F 69% 30.06 in 10.0 mi SSE 20.7 mph 28.8 mph N/A   Overcast
7:55 PM 59.2 °F - 49.1 °F 69% 30.06 in 10.0 mi SE 16.1 mph 21.9 mph N/A   Overcast
8:15 PM 59.7 °F - 48.7 °F 67% 30.05 in 10.0 mi SE 25.3 mph 29.9 mph N/A   Overcast
8:35 PM 59.9 °F - 48.4 °F 66% 30.05 in 10.0 mi SE 21.9 mph 31.1 mph N/A   Overcast
8:55 PM 59.2 °F - 48.2 °F 67% 30.05 in 10.0 mi SE 20.7 mph 26.5 mph N/A   Overcast
9:15 PM 59.0 °F - 48.2 °F 67% 30.04 in 10.0 mi SE 19.6 mph 27.6 mph N/A   Overcast
9:35 PM 59.0 °F - 48.4 °F 68% 30.04 in 10.0 mi SE 20.7 mph 25.3 mph N/A   Overcast
9:55 PM 59.0 °F - 48.6 °F 68% 30.04 in 10.0 mi SE 18.4 mph 26.5 mph N/A   Overcast
10:15 PM 59.0 °F - 48.7 °F 69% 30.04 in 10.0 mi SSE 21.9 mph 26.5 mph N/A   Overcast
10:35 PM 58.6 °F - 48.6 °F 69% 30.04 in 10.0 mi SSE 24.2 mph 28.8 mph N/A   Overcast
10:55 PM 58.8 °F - 48.4 °F 68% 30.05 in 10.0 mi SSE 23.0 mph 28.8 mph N/A   Overcast
11:15 PM 58.5 °F - 48.6 °F 70% 30.05 in 10.0 mi SSE 23.0 mph 28.8 mph N/A   Overcast
11:35 PM 57.6 °F - 48.6 °F 72% 30.05 in 10.0 mi SSE 19.6 mph 24.2 mph N/A   Mostly Cloudy
11:55 PM 58.1 °F - 49.1 °F 72% 30.05 in 10.0 mi SSE 26.5 mph 29.9 mph N/A   Mostly Cloudy